sensor_id;sensor_type;location;lat;lon;timestamp;P1;durP1;ratioP1;P2;durP2;ratioP2
26413;SDS011;14108;53.668;10.288;2022-10-13T00:00:24;9.77;;;2.95;;
26413;SDS011;14108;53.668;10.288;2022-10-13T00:02:51;10.77;;;3.03;;
26413;SDS011;14108;53.668;10.288;2022-10-13T00:05:18;5.85;;;3.15;;
26413;SDS011;14108;53.668;10.288;2022-10-13T00:07:45;5.70;;;2.78;;
26413;SDS011;14108;53.668;10.288;2022-10-13T00:10:12;7.03;;;3.35;;
26413;SDS011;14108;53.668;10.288;2022-10-13T00:12:39;9.23;;;3.92;;
26413;SDS011;14108;53.668;10.288;2022-10-13T00:15:06;6.00;;;2.87;;
26413;SDS011;14108;53.668;10.288;2022-10-13T00:17:34;8.07;;;3.70;;
26413;SDS011;14108;53.668;10.288;2022-10-13T00:20:01;5.43;;;3.22;;
26413;SDS011;14108;53.668;10.288;2022-10-13T00:22:28;9.60;;;3.92;;
26413;SDS011;14108;53.668;10.288;2022-10-13T00:24:55;10.23;;;3.83;;
26413;SDS011;14108;53.668;10.288;2022-10-13T00:27:22;10.30;;;3.45;;
26413;SDS011;14108;53.668;10.288;2022-10-13T00:29:49;10.60;;;3.42;;
26413;SDS011;14108;53.668;10.288;2022-10-13T00:32:16;13.50;;;3.40;;
26413;SDS011;14108;53.668;10.288;2022-10-13T00:34:43;10.27;;;3.45;;
26413;SDS011;14108;53.668;10.288;2022-10-13T00:37:10;7.00;;;3.25;;
26413;SDS011;14108;53.668;10.288;2022-10-13T00:39:37;10.50;;;3.50;;
26413;SDS011;14108;53.668;10.288;2022-10-13T00:42:05;9.93;;;3.72;;
26413;SDS011;14108;53.668;10.288;2022-10-13T00:44:57;9.63;;;4.80;;
26413;SDS011;14108;53.668;10.288;2022-10-13T00:47:25;8.55;;;3.50;;
26413;SDS011;14108;53.668;10.288;2022-10-13T00:49:52;10.57;;;3.33;;
26413;SDS011;14108;53.668;10.288;2022-10-13T00:52:20;8.45;;;3.47;;
26413;SDS011;14108;53.668;10.288;2022-10-13T00:54:47;11.45;;;3.70;;
26413;SDS011;14108;53.668;10.288;2022-10-13T00:57:15;12.20;;;4.30;;
26413;SDS011;14108;53.668;10.288;2022-10-13T00:59:43;8.27;;;3.10;;
26413;SDS011;14108;53.668;10.288;2022-10-13T01:02:10;6.25;;;3.28;;
26413;SDS011;14108;53.668;10.288;2022-10-13T01:04:38;9.63;;;3.35;;
26413;SDS011;14108;53.668;10.288;2022-10-13T01:07:08;8.20;;;3.92;;
26413;SDS011;14108;53.668;10.288;2022-10-13T01:09:35;11.20;;;3.75;;
26413;SDS011;14108;53.668;10.288;2022-10-13T01:12:05;10.68;;;3.80;;
26413;SDS011;14108;53.668;10.288;2022-10-13T01:14:37;9.75;;;3.65;;
26413;SDS011;14108;53.668;10.288;2022-10-13T01:17:09;9.68;;;3.47;;
26413;SDS011;14108;53.668;10.288;2022-10-13T01:19:53;9.50;;;3.40;;
26413;SDS011;14108;53.668;10.288;2022-10-13T01:22:29;8.18;;;3.05;;
26413;SDS011;14108;53.668;10.288;2022-10-13T01:25:02;6.18;;;2.92;;
26413;SDS011;14108;53.668;10.288;2022-10-13T01:27:42;7.68;;;4.28;;
26413;SDS011;14108;53.668;10.288;2022-10-13T01:30:16;11.30;;;3.65;;
26413;SDS011;14108;53.668;10.288;2022-10-13T01:32:56;7.75;;;3.05;;
26413;SDS011;14108;53.668;10.288;2022-10-13T01:35:29;13.10;;;3.33;;
26413;SDS011;14108;53.668;10.288;2022-10-13T01:38:00;7.22;;;3.78;;
26413;SDS011;14108;53.668;10.288;2022-10-13T01:40:31;6.28;;;3.42;;
26413;SDS011;14108;53.668;10.288;2022-10-13T01:43:00;7.97;;;3.58;;
26413;SDS011;14108;53.668;10.288;2022-10-13T01:45:29;7.53;;;2.90;;
26413;SDS011;14108;53.668;10.288;2022-10-13T01:47:57;8.60;;;3.90;;
26413;SDS011;14108;53.668;10.288;2022-10-13T01:50:25;7.18;;;3.62;;
26413;SDS011;14108;53.668;10.288;2022-10-13T01:52:52;10.32;;;3.70;;
26413;SDS011;14108;53.668;10.288;2022-10-13T01:55:20;9.10;;;3.70;;
26413;SDS011;14108;53.668;10.288;2022-10-13T01:57:47;8.15;;;3.62;;
26413;SDS011;14108;53.668;10.288;2022-10-13T02:00:15;12.20;;;3.35;;
26413;SDS011;14108;53.668;10.288;2022-10-13T02:02:44;6.78;;;3.60;;
26413;SDS011;14108;53.668;10.288;2022-10-13T02:05:15;6.60;;;3.40;;
26413;SDS011;14108;53.668;10.288;2022-10-13T02:07:44;6.90;;;4.00;;
26413;SDS011;14108;53.668;10.288;2022-10-13T02:10:14;7.32;;;3.53;;
26413;SDS011;14108;53.668;10.288;2022-10-13T02:12:45;6.75;;;3.60;;
26413;SDS011;14108;53.668;10.288;2022-10-13T02:15:15;7.53;;;3.20;;
26413;SDS011;14108;53.668;10.288;2022-10-13T02:17:42;10.02;;;4.28;;
26413;SDS011;14108;53.668;10.288;2022-10-13T02:20:09;10.43;;;4.00;;
26413;SDS011;14108;53.668;10.288;2022-10-13T02:22:37;10.60;;;4.47;;
26413;SDS011;14108;53.668;10.288;2022-10-13T02:25:06;8.90;;;3.65;;
26413;SDS011;14108;53.668;10.288;2022-10-13T02:27:33;9.40;;;4.55;;
26413;SDS011;14108;53.668;10.288;2022-10-13T02:30:00;7.00;;;3.62;;
26413;SDS011;14108;53.668;10.288;2022-10-13T02:32:27;11.10;;;5.25;;
26413;SDS011;14108;53.668;10.288;2022-10-13T02:34:54;8.77;;;4.25;;
26413;SDS011;14108;53.668;10.288;2022-10-13T02:37:21;6.50;;;4.12;;
26413;SDS011;14108;53.668;10.288;2022-10-13T02:39:50;7.00;;;3.95;;
26413;SDS011;14108;53.668;10.288;2022-10-13T02:42:17;14.25;;;4.55;;
26413;SDS011;14108;53.668;10.288;2022-10-13T02:44:43;11.48;;;4.10;;
26413;SDS011;14108;53.668;10.288;2022-10-13T02:47:10;8.55;;;3.83;;
26413;SDS011;14108;53.668;10.288;2022-10-13T02:49:38;8.23;;;3.45;;
26413;SDS011;14108;53.668;10.288;2022-10-13T02:52:04;12.60;;;4.78;;
26413;SDS011;14108;53.668;10.288;2022-10-13T02:54:31;11.80;;;4.00;;
26413;SDS011;14108;53.668;10.288;2022-10-13T02:56:58;11.32;;;4.62;;
26413;SDS011;14108;53.668;10.288;2022-10-13T02:59:25;8.65;;;4.50;;
26413;SDS011;14108;53.668;10.288;2022-10-13T03:01:52;10.70;;;4.93;;
26413;SDS011;14108;53.668;10.288;2022-10-13T03:04:19;7.65;;;4.12;;
26413;SDS011;14108;53.668;10.288;2022-10-13T03:06:46;8.68;;;3.72;;
26413;SDS011;14108;53.668;10.288;2022-10-13T03:09:13;7.65;;;4.20;;
26413;SDS011;14108;53.668;10.288;2022-10-13T03:11:41;12.13;;;4.05;;
26413;SDS011;14108;53.668;10.288;2022-10-13T03:14:08;9.77;;;4.32;;
26413;SDS011;14108;53.668;10.288;2022-10-13T03:16:35;9.30;;;4.30;;
26413;SDS011;14108;53.668;10.288;2022-10-13T03:19:02;8.52;;;4.28;;
26413;SDS011;14108;53.668;10.288;2022-10-13T03:21:29;12.10;;;4.93;;
26413;SDS011;14108;53.668;10.288;2022-10-13T03:23:56;7.57;;;4.12;;
26413;SDS011;14108;53.668;10.288;2022-10-13T03:26:23;8.68;;;4.03;;
26413;SDS011;14108;53.668;10.288;2022-10-13T03:28:50;8.32;;;4.62;;
26413;SDS011;14108;53.668;10.288;2022-10-13T03:31:18;6.68;;;3.75;;
26413;SDS011;14108;53.668;10.288;2022-10-13T03:33:45;12.15;;;4.35;;
26413;SDS011;14108;53.668;10.288;2022-10-13T03:36:12;5.82;;;4.10;;
26413;SDS011;14108;53.668;10.288;2022-10-13T03:38:39;9.35;;;4.10;;
26413;SDS011;14108;53.668;10.288;2022-10-13T03:41:07;10.77;;;5.30;;
26413;SDS011;14108;53.668;10.288;2022-10-13T03:43:34;13.55;;;5.70;;
26413;SDS011;14108;53.668;10.288;2022-10-13T03:46:01;10.00;;;4.43;;
26413;SDS011;14108;53.668;10.288;2022-10-13T03:48:29;7.18;;;4.03;;
26413;SDS011;14108;53.668;10.288;2022-10-13T03:50:56;8.05;;;4.05;;
26413;SDS011;14108;53.668;10.288;2022-10-13T03:53:23;8.68;;;4.12;;
26413;SDS011;14108;53.668;10.288;2022-10-13T03:55:51;12.13;;;5.45;;
26413;SDS011;14108;53.668;10.288;2022-10-13T03:58:18;8.60;;;4.55;;
26413;SDS011;14108;53.668;10.288;2022-10-13T04:00:46;10.27;;;4.57;;
26413;SDS011;14108;53.668;10.288;2022-10-13T04:03:13;11.35;;;4.90;;
26413;SDS011;14108;53.668;10.288;2022-10-13T04:05:40;10.98;;;4.97;;
26413;SDS011;14108;53.668;10.288;2022-10-13T04:08:07;10.45;;;4.25;;
26413;SDS011;14108;53.668;10.288;2022-10-13T04:10:34;7.00;;;4.25;;
26413;SDS011;14108;53.668;10.288;2022-10-13T04:13:01;11.50;;;5.53;;
26413;SDS011;14108;53.668;10.288;2022-10-13T04:15:28;8.45;;;4.80;;
26413;SDS011;14108;53.668;10.288;2022-10-13T04:17:55;9.90;;;4.97;;
26413;SDS011;14108;53.668;10.288;2022-10-13T04:20:21;8.95;;;4.35;;
26413;SDS011;14108;53.668;10.288;2022-10-13T04:22:48;15.52;;;6.07;;
26413;SDS011;14108;53.668;10.288;2022-10-13T04:25:16;10.15;;;5.28;;
26413;SDS011;14108;53.668;10.288;2022-10-13T04:27:43;9.85;;;4.65;;
26413;SDS011;14108;53.668;10.288;2022-10-13T04:30:12;8.57;;;5.15;;
26413;SDS011;14108;53.668;10.288;2022-10-13T04:32:40;9.57;;;4.78;;
26413;SDS011;14108;53.668;10.288;2022-10-13T04:35:07;14.38;;;5.65;;
26413;SDS011;14108;53.668;10.288;2022-10-13T04:37:34;13.07;;;5.30;;
26413;SDS011;14108;53.668;10.288;2022-10-13T04:40:01;13.68;;;5.72;;
26413;SDS011;14108;53.668;10.288;2022-10-13T04:42:28;10.35;;;5.35;;
26413;SDS011;14108;53.668;10.288;2022-10-13T04:44:55;12.75;;;4.82;;
26413;SDS011;14108;53.668;10.288;2022-10-13T04:47:22;11.50;;;5.18;;
26413;SDS011;14108;53.668;10.288;2022-10-13T04:49:49;9.43;;;4.80;;
26413;SDS011;14108;53.668;10.288;2022-10-13T04:52:16;8.90;;;4.95;;
26413;SDS011;14108;53.668;10.288;2022-10-13T04:54:42;12.00;;;5.07;;
26413;SDS011;14108;53.668;10.288;2022-10-13T04:57:09;11.88;;;5.60;;
26413;SDS011;14108;53.668;10.288;2022-10-13T04:59:36;8.25;;;4.60;;
26413;SDS011;14108;53.668;10.288;2022-10-13T05:02:03;8.57;;;5.10;;
26413;SDS011;14108;53.668;10.288;2022-10-13T05:04:30;10.30;;;5.18;;
26413;SDS011;14108;53.668;10.288;2022-10-13T05:06:57;11.95;;;5.20;;
26413;SDS011;14108;53.668;10.288;2022-10-13T05:09:24;8.73;;;5.43;;
26413;SDS011;14108;53.668;10.288;2022-10-13T05:11:51;8.55;;;5.47;;
26413;SDS011;14108;53.668;10.288;2022-10-13T05:14:19;7.93;;;4.22;;
26413;SDS011;14108;53.668;10.288;2022-10-13T05:16:46;10.00;;;4.95;;
26413;SDS011;14108;53.668;10.288;2022-10-13T05:19:14;18.40;;;5.47;;
26413;SDS011;14108;53.668;10.288;2022-10-13T05:21:41;8.98;;;4.93;;
26413;SDS011;14108;53.668;10.288;2022-10-13T05:24:08;11.48;;;5.03;;
26413;SDS011;14108;53.668;10.288;2022-10-13T05:26:38;9.93;;;4.75;;
26413;SDS011;14108;53.668;10.288;2022-10-13T05:29:05;11.43;;;4.75;;
26413;SDS011;14108;53.668;10.288;2022-10-13T05:31:32;11.82;;;4.80;;
26413;SDS011;14108;53.668;10.288;2022-10-13T05:33:59;10.98;;;5.07;;
26413;SDS011;14108;53.668;10.288;2022-10-13T05:36:27;9.25;;;5.10;;
26413;SDS011;14108;53.668;10.288;2022-10-13T05:38:55;9.10;;;4.50;;
26413;SDS011;14108;53.668;10.288;2022-10-13T05:41:23;9.88;;;5.15;;
26413;SDS011;14108;53.668;10.288;2022-10-13T05:43:50;8.68;;;5.00;;
26413;SDS011;14108;53.668;10.288;2022-10-13T05:46:18;9.98;;;5.03;;
26413;SDS011;14108;53.668;10.288;2022-10-13T05:48:45;10.25;;;5.62;;
26413;SDS011;14108;53.668;10.288;2022-10-13T05:51:13;10.98;;;5.62;;
26413;SDS011;14108;53.668;10.288;2022-10-13T05:53:41;7.60;;;4.70;;
26413;SDS011;14108;53.668;10.288;2022-10-13T05:56:09;10.02;;;5.93;;
26413;SDS011;14108;53.668;10.288;2022-10-13T05:58:38;11.18;;;6.03;;
26413;SDS011;14108;53.668;10.288;2022-10-13T06:01:06;8.93;;;5.10;;
26413;SDS011;14108;53.668;10.288;2022-10-13T06:03:33;9.85;;;5.50;;
26413;SDS011;14108;53.668;10.288;2022-10-13T06:06:01;9.68;;;5.62;;
26413;SDS011;14108;53.668;10.288;2022-10-13T06:08:28;7.20;;;5.07;;
26413;SDS011;14108;53.668;10.288;2022-10-13T06:10:55;12.45;;;5.80;;
26413;SDS011;14108;53.668;10.288;2022-10-13T06:13:22;11.90;;;5.45;;
26413;SDS011;14108;53.668;10.288;2022-10-13T06:15:49;10.68;;;5.37;;
26413;SDS011;14108;53.668;10.288;2022-10-13T06:18:16;9.82;;;5.70;;
26413;SDS011;14108;53.668;10.288;2022-10-13T06:20:43;13.05;;;6.80;;
26413;SDS011;14108;53.668;10.288;2022-10-13T06:25:48;16.58;;;7.15;;
26413;SDS011;14108;53.668;10.288;2022-10-13T06:28:15;9.43;;;5.40;;
26413;SDS011;14108;53.668;10.288;2022-10-13T06:30:43;13.95;;;6.35;;
26413;SDS011;14108;53.668;10.288;2022-10-13T06:33:12;13.60;;;6.90;;
26413;SDS011;14108;53.668;10.288;2022-10-13T06:35:40;12.05;;;5.12;;
26413;SDS011;14108;53.668;10.288;2022-10-13T06:38:07;11.65;;;5.18;;
26413;SDS011;14108;53.668;10.288;2022-10-13T06:40:34;10.65;;;5.90;;
26413;SDS011;14108;53.668;10.288;2022-10-13T06:43:01;12.77;;;6.30;;
26413;SDS011;14108;53.668;10.288;2022-10-13T06:45:28;9.05;;;5.10;;
26413;SDS011;14108;53.668;10.288;2022-10-13T06:47:55;16.15;;;6.03;;
26413;SDS011;14108;53.668;10.288;2022-10-13T06:50:22;11.90;;;6.68;;
26413;SDS011;14108;53.668;10.288;2022-10-13T06:52:49;8.50;;;5.05;;
26413;SDS011;14108;53.668;10.288;2022-10-13T06:55:16;14.40;;;6.18;;
26413;SDS011;14108;53.668;10.288;2022-10-13T06:57:43;10.80;;;6.18;;
26413;SDS011;14108;53.668;10.288;2022-10-13T07:00:10;13.80;;;6.30;;
26413;SDS011;14108;53.668;10.288;2022-10-13T07:02:37;14.98;;;5.78;;
26413;SDS011;14108;53.668;10.288;2022-10-13T07:05:05;14.25;;;5.97;;
26413;SDS011;14108;53.668;10.288;2022-10-13T07:07:32;14.25;;;6.87;;
26413;SDS011;14108;53.668;10.288;2022-10-13T07:09:59;11.57;;;6.62;;
26413;SDS011;14108;53.668;10.288;2022-10-13T07:12:26;9.32;;;6.10;;
26413;SDS011;14108;53.668;10.288;2022-10-13T07:14:52;16.67;;;6.82;;
26413;SDS011;14108;53.668;10.288;2022-10-13T07:17:19;16.73;;;6.90;;
26413;SDS011;14108;53.668;10.288;2022-10-13T07:19:46;13.00;;;7.70;;
26413;SDS011;14108;53.668;10.288;2022-10-13T07:22:13;10.70;;;6.15;;
26413;SDS011;14108;53.668;10.288;2022-10-13T07:24:41;10.65;;;6.28;;
26413;SDS011;14108;53.668;10.288;2022-10-13T07:27:07;11.90;;;6.93;;
26413;SDS011;14108;53.668;10.288;2022-10-13T07:29:35;9.98;;;6.15;;
26413;SDS011;14108;53.668;10.288;2022-10-13T07:32:01;12.55;;;7.12;;
26413;SDS011;14108;53.668;10.288;2022-10-13T07:34:28;13.30;;;6.28;;
26413;SDS011;14108;53.668;10.288;2022-10-13T07:36:56;11.23;;;6.85;;
26413;SDS011;14108;53.668;10.288;2022-10-13T07:39:22;11.18;;;5.82;;
26413;SDS011;14108;53.668;10.288;2022-10-13T07:41:49;12.63;;;6.78;;
26413;SDS011;14108;53.668;10.288;2022-10-13T07:44:16;13.07;;;6.43;;
26413;SDS011;14108;53.668;10.288;2022-10-13T07:46:43;10.32;;;6.05;;
26413;SDS011;14108;53.668;10.288;2022-10-13T07:49:10;12.15;;;7.03;;
26413;SDS011;14108;53.668;10.288;2022-10-13T07:51:37;14.55;;;7.45;;
26413;SDS011;14108;53.668;10.288;2022-10-13T07:54:04;19.55;;;8.25;;
26413;SDS011;14108;53.668;10.288;2022-10-13T07:56:31;13.62;;;7.60;;
26413;SDS011;14108;53.668;10.288;2022-10-13T07:58:58;14.05;;;8.20;;
26413;SDS011;14108;53.668;10.288;2022-10-13T08:01:27;12.00;;;6.60;;
26413;SDS011;14108;53.668;10.288;2022-10-13T08:03:54;14.30;;;7.62;;
26413;SDS011;14108;53.668;10.288;2022-10-13T08:06:21;17.12;;;8.18;;
26413;SDS011;14108;53.668;10.288;2022-10-13T08:08:48;10.40;;;6.30;;
26413;SDS011;14108;53.668;10.288;2022-10-13T08:11:15;11.75;;;7.18;;
26413;SDS011;14108;53.668;10.288;2022-10-13T08:13:45;14.50;;;6.68;;
26413;SDS011;14108;53.668;10.288;2022-10-13T08:16:13;11.60;;;6.95;;
26413;SDS011;14108;53.668;10.288;2022-10-13T08:18:40;12.15;;;7.12;;
26413;SDS011;14108;53.668;10.288;2022-10-13T08:21:08;11.27;;;6.72;;
26413;SDS011;14108;53.668;10.288;2022-10-13T08:23:36;12.32;;;6.57;;
26413;SDS011;14108;53.668;10.288;2022-10-13T08:26:03;13.07;;;6.97;;
26413;SDS011;14108;53.668;10.288;2022-10-13T08:28:31;15.02;;;7.57;;
26413;SDS011;14108;53.668;10.288;2022-10-13T08:30:58;13.38;;;7.47;;
26413;SDS011;14108;53.668;10.288;2022-10-13T08:33:25;14.40;;;7.03;;
26413;SDS011;14108;53.668;10.288;2022-10-13T08:35:52;11.85;;;7.47;;
26413;SDS011;14108;53.668;10.288;2022-10-13T08:38:19;15.65;;;7.95;;
26413;SDS011;14108;53.668;10.288;2022-10-13T08:40:47;15.70;;;8.73;;
26413;SDS011;14108;53.668;10.288;2022-10-13T08:43:15;15.38;;;7.60;;
26413;SDS011;14108;53.668;10.288;2022-10-13T08:45:43;12.55;;;7.75;;
26413;SDS011;14108;53.668;10.288;2022-10-13T08:48:10;15.45;;;8.60;;
26413;SDS011;14108;53.668;10.288;2022-10-13T08:50:40;22.02;;;9.13;;
26413;SDS011;14108;53.668;10.288;2022-10-13T08:53:10;15.45;;;7.78;;
26413;SDS011;14108;53.668;10.288;2022-10-13T08:55:38;17.00;;;8.20;;
26413;SDS011;14108;53.668;10.288;2022-10-13T08:58:10;18.50;;;8.90;;
26413;SDS011;14108;53.668;10.288;2022-10-13T09:00:38;12.50;;;8.70;;
26413;SDS011;14108;53.668;10.288;2022-10-13T09:03:10;22.80;;;9.02;;
26413;SDS011;14108;53.668;10.288;2022-10-13T09:05:44;16.25;;;8.55;;
26413;SDS011;14108;53.668;10.288;2022-10-13T09:08:15;17.27;;;8.73;;
26413;SDS011;14108;53.668;10.288;2022-10-13T09:10:45;22.37;;;9.50;;
26413;SDS011;14108;53.668;10.288;2022-10-13T09:13:13;17.25;;;8.95;;
26413;SDS011;14108;53.668;10.288;2022-10-13T09:15:42;19.17;;;10.30;;
26413;SDS011;14108;53.668;10.288;2022-10-13T09:18:10;17.00;;;9.30;;
26413;SDS011;14108;53.668;10.288;2022-10-13T09:20:38;15.43;;;8.77;;
26413;SDS011;14108;53.668;10.288;2022-10-13T09:23:07;18.05;;;9.65;;
26413;SDS011;14108;53.668;10.288;2022-10-13T09:25:42;16.85;;;9.25;;
26413;SDS011;14108;53.668;10.288;2022-10-13T09:30:45;24.50;;;9.70;;
26413;SDS011;14108;53.668;10.288;2022-10-13T09:33:23;21.42;;;10.73;;
26413;SDS011;14108;53.668;10.288;2022-10-13T09:36:05;20.35;;;11.73;;
26413;SDS011;14108;53.668;10.288;2022-10-13T09:38:35;20.20;;;10.63;;
26413;SDS011;14108;53.668;10.288;2022-10-13T09:41:03;23.45;;;10.93;;
26413;SDS011;14108;53.668;10.288;2022-10-13T09:43:32;20.23;;;10.98;;
26413;SDS011;14108;53.668;10.288;2022-10-13T09:46:00;20.83;;;11.12;;
26413;SDS011;14108;53.668;10.288;2022-10-13T09:48:27;22.85;;;11.10;;
26413;SDS011;14108;53.668;10.288;2022-10-13T09:50:55;18.98;;;10.35;;
26413;SDS011;14108;53.668;10.288;2022-10-13T09:53:24;19.33;;;10.38;;
26413;SDS011;14108;53.668;10.288;2022-10-13T09:56:06;18.25;;;10.63;;
26413;SDS011;14108;53.668;10.288;2022-10-13T09:58:33;17.65;;;11.45;;
26413;SDS011;14108;53.668;10.288;2022-10-13T10:01:03;17.15;;;10.27;;
26413;SDS011;14108;53.668;10.288;2022-10-13T10:03:31;19.85;;;11.05;;
26413;SDS011;14108;53.668;10.288;2022-10-13T10:06:00;24.60;;;11.48;;
26413;SDS011;14108;53.668;10.288;2022-10-13T10:08:30;19.15;;;9.93;;
26413;SDS011;14108;53.668;10.288;2022-10-13T10:10:59;18.23;;;10.35;;
26413;SDS011;14108;53.668;10.288;2022-10-13T10:13:27;22.58;;;11.00;;
26413;SDS011;14108;53.668;10.288;2022-10-13T10:15:55;18.20;;;11.05;;
26413;SDS011;14108;53.668;10.288;2022-10-13T10:18:26;18.83;;;10.82;;
26413;SDS011;14108;53.668;10.288;2022-10-13T10:20:57;21.62;;;11.82;;
26413;SDS011;14108;53.668;10.288;2022-10-13T10:23:30;25.00;;;11.23;;
26413;SDS011;14108;53.668;10.288;2022-10-13T10:26:00;18.70;;;9.82;;
26413;SDS011;14108;53.668;10.288;2022-10-13T10:31:18;24.67;;;11.20;;
26413;SDS011;14108;53.668;10.288;2022-10-13T10:33:48;20.52;;;10.60;;
26413;SDS011;14108;53.668;10.288;2022-10-13T10:36:20;17.67;;;10.10;;
26413;SDS011;14108;53.668;10.288;2022-10-13T10:38:49;17.52;;;9.57;;
26413;SDS011;14108;53.668;10.288;2022-10-13T10:41:22;16.58;;;10.35;;
26413;SDS011;14108;53.668;10.288;2022-10-13T10:43:50;24.35;;;10.80;;
26413;SDS011;14108;53.668;10.288;2022-10-13T10:46:20;16.90;;;10.52;;
26413;SDS011;14108;53.668;10.288;2022-10-13T10:48:50;28.75;;;12.00;;
26413;SDS011;14108;53.668;10.288;2022-10-13T10:51:18;17.52;;;11.35;;
26413;SDS011;14108;53.668;10.288;2022-10-13T10:53:52;19.77;;;10.50;;
26413;SDS011;14108;53.668;10.288;2022-10-13T10:56:24;19.42;;;10.65;;
26413;SDS011;14108;53.668;10.288;2022-10-13T10:58:57;17.83;;;10.73;;
26413;SDS011;14108;53.668;10.288;2022-10-13T11:01:30;18.98;;;10.45;;
26413;SDS011;14108;53.668;10.288;2022-10-13T11:04:01;16.90;;;10.23;;
26413;SDS011;14108;53.668;10.288;2022-10-13T11:06:40;17.15;;;10.18;;
26413;SDS011;14108;53.668;10.288;2022-10-13T11:09:08;17.12;;;9.73;;
26413;SDS011;14108;53.668;10.288;2022-10-13T11:11:40;24.55;;;11.23;;
26413;SDS011;14108;53.668;10.288;2022-10-13T11:17:09;16.02;;;9.20;;
26413;SDS011;14108;53.668;10.288;2022-10-13T11:19:41;18.90;;;10.10;;
26413;SDS011;14108;53.668;10.288;2022-10-13T11:22:12;13.30;;;8.07;;
26413;SDS011;14108;53.668;10.288;2022-10-13T11:24:53;18.33;;;9.55;;
26413;SDS011;14108;53.668;10.288;2022-10-13T11:27:24;15.95;;;9.15;;
26413;SDS011;14108;53.668;10.288;2022-10-13T11:29:53;15.75;;;9.50;;
26413;SDS011;14108;53.668;10.288;2022-10-13T11:35:19;18.23;;;10.43;;
26413;SDS011;14108;53.668;10.288;2022-10-13T11:37:48;20.33;;;10.77;;
26413;SDS011;14108;53.668;10.288;2022-10-13T11:40:22;15.95;;;9.30;;
26413;SDS011;14108;53.668;10.288;2022-10-13T11:48:49;15.75;;;8.75;;
26413;SDS011;14108;53.668;10.288;2022-10-13T11:51:28;18.98;;;9.07;;
26413;SDS011;14108;53.668;10.288;2022-10-13T11:53:58;15.75;;;9.80;;
26413;SDS011;14108;53.668;10.288;2022-10-13T11:56:32;17.33;;;9.65;;
26413;SDS011;14108;53.668;10.288;2022-10-13T11:59:00;15.02;;;8.43;;
26413;SDS011;14108;53.668;10.288;2022-10-13T12:01:27;17.55;;;9.38;;
26413;SDS011;14108;53.668;10.288;2022-10-13T12:03:54;14.13;;;8.45;;
26413;SDS011;14108;53.668;10.288;2022-10-13T12:06:27;14.30;;;9.13;;
26413;SDS011;14108;53.668;10.288;2022-10-13T12:09:00;17.75;;;9.45;;
26413;SDS011;14108;53.668;10.288;2022-10-13T12:11:28;19.00;;;8.90;;
26413;SDS011;14108;53.668;10.288;2022-10-13T12:13:56;20.40;;;9.27;;
26413;SDS011;14108;53.668;10.288;2022-10-13T12:16:23;19.35;;;8.75;;
26413;SDS011;14108;53.668;10.288;2022-10-13T12:18:51;14.43;;;7.72;;
26413;SDS011;14108;53.668;10.288;2022-10-13T12:21:18;14.13;;;9.02;;
26413;SDS011;14108;53.668;10.288;2022-10-13T12:23:46;17.92;;;8.35;;
26413;SDS011;14108;53.668;10.288;2022-10-13T12:26:14;19.20;;;9.63;;
26413;SDS011;14108;53.668;10.288;2022-10-13T12:28:44;15.85;;;8.30;;
26413;SDS011;14108;53.668;10.288;2022-10-13T12:31:16;13.05;;;8.00;;
26413;SDS011;14108;53.668;10.288;2022-10-13T12:33:50;14.68;;;8.07;;
26413;SDS011;14108;53.668;10.288;2022-10-13T12:36:18;14.07;;;7.45;;
26413;SDS011;14108;53.668;10.288;2022-10-13T12:38:47;12.50;;;8.07;;
26413;SDS011;14108;53.668;10.288;2022-10-13T12:41:16;13.13;;;7.45;;
26413;SDS011;14108;53.668;10.288;2022-10-13T12:43:44;13.05;;;7.70;;
26413;SDS011;14108;53.668;10.288;2022-10-13T12:46:11;14.60;;;8.43;;
26413;SDS011;14108;53.668;10.288;2022-10-13T12:48:38;14.63;;;8.20;;
26413;SDS011;14108;53.668;10.288;2022-10-13T12:51:14;14.65;;;7.82;;
26413;SDS011;14108;53.668;10.288;2022-10-13T12:53:42;13.10;;;7.25;;
26413;SDS011;14108;53.668;10.288;2022-10-13T12:56:17;19.85;;;8.15;;
26413;SDS011;14108;53.668;10.288;2022-10-13T12:58:45;12.57;;;8.02;;
26413;SDS011;14108;53.668;10.288;2022-10-13T13:01:20;12.43;;;7.62;;
26413;SDS011;14108;53.668;10.288;2022-10-13T13:03:53;12.95;;;8.27;;
26413;SDS011;14108;53.668;10.288;2022-10-13T13:06:22;17.08;;;9.10;;
26413;SDS011;14108;53.668;10.288;2022-10-13T13:09:05;19.08;;;7.87;;
26413;SDS011;14108;53.668;10.288;2022-10-13T13:11:33;13.77;;;7.50;;
26413;SDS011;14108;53.668;10.288;2022-10-13T13:17:00;13.80;;;7.05;;
26413;SDS011;14108;53.668;10.288;2022-10-13T13:19:29;13.77;;;7.55;;
26413;SDS011;14108;53.668;10.288;2022-10-13T13:21:56;14.15;;;7.12;;
26413;SDS011;14108;53.668;10.288;2022-10-13T13:24:23;10.82;;;6.85;;
26413;SDS011;14108;53.668;10.288;2022-10-13T13:26:50;14.27;;;7.18;;
26413;SDS011;14108;53.668;10.288;2022-10-13T13:29:17;15.70;;;7.03;;
26413;SDS011;14108;53.668;10.288;2022-10-13T13:31:44;9.20;;;5.72;;
26413;SDS011;14108;53.668;10.288;2022-10-13T13:34:11;11.82;;;7.12;;
26413;SDS011;14108;53.668;10.288;2022-10-13T13:36:38;12.25;;;7.15;;
26413;SDS011;14108;53.668;10.288;2022-10-13T13:39:08;11.68;;;6.95;;
26413;SDS011;14108;53.668;10.288;2022-10-13T13:41:38;18.00;;;7.97;;
26413;SDS011;14108;53.668;10.288;2022-10-13T13:44:05;14.95;;;7.35;;
26413;SDS011;14108;53.668;10.288;2022-10-13T13:46:32;10.23;;;6.53;;
26413;SDS011;14108;53.668;10.288;2022-10-13T13:48:59;16.75;;;7.45;;
26413;SDS011;14108;53.668;10.288;2022-10-13T13:51:27;15.60;;;6.87;;
26413;SDS011;14108;53.668;10.288;2022-10-13T13:53:54;17.08;;;6.55;;
26413;SDS011;14108;53.668;10.288;2022-10-13T13:56:21;16.58;;;7.82;;
26413;SDS011;14108;53.668;10.288;2022-10-13T13:58:48;19.85;;;7.43;;
26413;SDS011;14108;53.668;10.288;2022-10-13T14:01:15;13.35;;;7.00;;
26413;SDS011;14108;53.668;10.288;2022-10-13T14:03:42;12.18;;;6.07;;
26413;SDS011;14108;53.668;10.288;2022-10-13T14:06:15;13.65;;;6.95;;
26413;SDS011;14108;53.668;10.288;2022-10-13T14:08:43;12.40;;;5.93;;
26413;SDS011;14108;53.668;10.288;2022-10-13T14:11:10;13.95;;;6.43;;
26413;SDS011;14108;53.668;10.288;2022-10-13T14:13:37;14.63;;;6.10;;
26413;SDS011;14108;53.668;10.288;2022-10-13T14:16:04;13.77;;;7.03;;
26413;SDS011;14108;53.668;10.288;2022-10-13T14:18:31;10.32;;;5.40;;
26413;SDS011;14108;53.668;10.288;2022-10-13T14:20:58;11.45;;;6.12;;
26413;SDS011;14108;53.668;10.288;2022-10-13T14:23:25;10.93;;;6.07;;
26413;SDS011;14108;53.668;10.288;2022-10-13T14:25:52;12.55;;;6.22;;
26413;SDS011;14108;53.668;10.288;2022-10-13T14:28:19;11.98;;;6.50;;
26413;SDS011;14108;53.668;10.288;2022-10-13T14:30:46;13.68;;;5.72;;
26413;SDS011;14108;53.668;10.288;2022-10-13T14:33:13;11.65;;;6.15;;
26413;SDS011;14108;53.668;10.288;2022-10-13T14:35:44;13.77;;;7.10;;
26413;SDS011;14108;53.668;10.288;2022-10-13T14:38:11;11.25;;;6.03;;
26413;SDS011;14108;53.668;10.288;2022-10-13T14:40:39;11.43;;;5.87;;
26413;SDS011;14108;53.668;10.288;2022-10-13T14:43:06;10.65;;;5.93;;
26413;SDS011;14108;53.668;10.288;2022-10-13T14:45:33;8.88;;;5.87;;
26413;SDS011;14108;53.668;10.288;2022-10-13T14:48:00;14.70;;;6.20;;
26413;SDS011;14108;53.668;10.288;2022-10-13T14:50:28;12.20;;;5.72;;
26413;SDS011;14108;53.668;10.288;2022-10-13T14:52:55;13.48;;;5.80;;